Time;durP1;ratioP1;P1;durP2;ratioP2;P2;SDS_P1;SDS_P2;PMS_P1;PMS_P2;Temp;Humidity;BMP_temperature;BMP_pressure;BME280_temperature;BME280_humidity;BME280_pressure;Samples;Min_cycle;Max_cycle;Signal;HPM_P1;HPM_P2
2021/11/14 00:01:01;;;;;;;13.60;4.00;;;12.30;1.00;;;;;;4974660;28;20220;-76
2021/11/14 00:03:30;;;;;;;10.77;3.45;;;12.30;1.00;;;;;;4974119;28;20681;-76
2021/11/14 00:05:57;;;;;;;10.57;3.80;;;12.30;1.00;;;;;;4974688;28;20263;-77
2021/11/14 00:08:24;;;;;;;10.27;3.45;;;12.20;1.00;;;;;;4974189;28;20567;-76
2021/11/14 00:10:54;;;;;;;10.50;3.67;;;12.20;1.00;;;;;;4974203;28;20221;-76
2021/11/14 00:13:23;;;;;;;14.90;4.47;;;12.20;1.00;;;;;;4974415;28;20629;-76
2021/11/14 00:15:50;;;;;;;11.60;3.90;;;12.20;1.00;;;;;;4974704;28;20205;-74
2021/11/14 00:18:18;;;;;;;8.73;4.00;;;12.20;1.00;;;;;;4973388;28;20652;-75
2021/11/14 00:20:45;;;;;;;10.27;3.47;;;12.20;1.00;;;;;;4974077;28;20256;-74
2021/11/14 00:23:13;;;;;;;14.50;3.72;;;12.20;1.00;;;;;;4973882;28;20264;-74
2021/11/14 00:25:40;;;;;;;11.60;3.92;;;12.20;1.00;;;;;;4973908;28;20677;-72
2021/11/14 00:28:09;;;;;;;15.25;5.03;;;12.20;1.00;;;;;;4974090;28;20681;-75
2021/11/14 00:30:38;;;;;;;17.55;5.55;;;12.20;1.00;;;;;;4974320;28;20206;-71
2021/11/14 00:33:07;;;;;;;10.63;3.45;;;12.10;1.00;;;;;;4974148;28;20728;-76
2021/11/14 00:35:34;;;;;;;13.20;4.20;;;12.10;1.00;;;;;;4974177;28;20277;-76
2021/11/14 00:38:01;;;;;;;10.30;4.47;;;12.10;1.00;;;;;;4974547;28;20284;-76
2021/11/14 00:40:31;;;;;;;9.68;3.08;;;12.10;1.00;;;;;;4973216;28;20217;-75
2021/11/14 00:42:59;;;;;;;8.25;4.20;;;12.10;1.00;;;;;;4973938;28;20221;-75
2021/11/14 00:45:27;;;;;;;6.45;2.70;;;12.00;1.00;;;;;;4973362;28;20280;-75
2021/11/14 00:47:56;;;;;;;3.13;1.40;;;12.00;1.00;;;;;;4973733;28;20217;-75
2021/11/14 00:50:23;;;;;;;4.45;1.50;;;12.00;1.00;;;;;;4973616;28;20304;-75
2021/11/14 00:52:51;;;;;;;3.10;1.13;;;11.90;1.00;;;;;;4973682;28;20268;-74
2021/11/14 00:55:20;;;;;;;4.63;1.20;;;11.90;1.00;;;;;;4973172;28;20212;-75
2021/11/14 00:57:48;;;;;;;3.28;1.30;;;11.90;1.00;;;;;;4973389;28;20257;-74
2021/11/14 01:00:20;;;;;;;2.28;0.65;;;11.90;1.00;;;;;;4973185;28;20210;-74
2021/11/14 01:02:47;;;;;;;1.27;0.68;;;11.80;1.00;;;;;;4973557;28;20256;-74
2021/11/14 01:05:18;;;;;;;3.20;1.20;;;11.80;1.00;;;;;;4973254;28;20256;-74
2021/11/14 01:07:46;;;;;;;1.92;0.80;;;11.90;1.00;;;;;;4973158;28;20210;-73
2021/11/14 01:10:16;;;;;;;4.43;1.60;;;11.80;1.00;;;;;;4973044;28;20210;-75
2021/11/14 01:12:44;;;;;;;3.35;1.10;;;11.80;1.00;;;;;;4973041;28;20272;-73
2021/11/14 01:15:14;;;;;;;4.28;1.33;;;11.80;1.00;;;;;;4972928;28;20736;-73
2021/11/14 01:17:41;;;;;;;4.38;1.63;;;11.80;1.00;;;;;;4973501;28;20276;-73
2021/11/14 01:20:11;;;;;;;2.58;0.93;;;11.90;1.00;;;;;;4959472;28;20206;-73
2021/11/14 01:22:40;;;;;;;2.05;0.80;;;11.90;1.00;;;;;;4973110;28;20260;-74
2021/11/14 01:25:09;;;;;;;2.25;0.85;;;11.80;1.00;;;;;;4972605;28;20209;-73
2021/11/14 01:27:37;;;;;;;2.58;0.85;;;11.80;1.00;;;;;;4973014;28;20677;-74
2021/11/14 01:30:06;;;;;;;1.42;0.60;;;11.90;1.00;;;;;;4973179;28;20249;-74
2021/11/14 01:32:33;;;;;;;2.50;1.02;;;11.80;1.00;;;;;;4973203;28;20210;-73
2021/11/14 01:35:00;;;;;;;2.03;0.70;;;11.80;1.00;;;;;;4973087;28;20210;-73
2021/11/14 01:37:27;;;;;;;3.42;1.15;;;11.80;1.00;;;;;;4972514;28;20209;-73
2021/11/14 01:39:55;;;;;;;2.92;0.82;;;11.80;1.00;;;;;;4972583;28;20241;-73
2021/11/14 01:42:23;;;;;;;3.63;1.20;;;11.80;1.00;;;;;;4972437;28;20201;-73
2021/11/14 01:44:50;;;;;;;2.42;1.05;;;11.80;1.00;;;;;;4973131;28;20206;-72
2021/11/14 01:47:17;;;;;;;2.80;1.02;;;11.80;1.00;;;;;;4972136;28;20684;-72
2021/11/14 01:49:44;;;;;;;3.53;1.10;;;11.80;1.00;;;;;;4972678;28;20648;-73
2021/11/14 01:52:19;;;;;;;0.82;0.68;;;11.80;1.00;;;;;;4972243;28;20252;-73
2021/11/14 01:54:46;;;;;;;7.97;2.95;;;11.80;1.00;;;;;;4960350;28;20271;-73
2021/11/14 01:57:14;;;;;;;4.13;1.00;;;11.80;1.00;;;;;;4972441;28;20260;-73
2021/11/14 01:59:42;;;;;;;5.85;3.45;;;11.80;1.00;;;;;;4972259;28;20644;-73
2021/11/14 02:02:10;;;;;;;4.35;1.45;;;11.80;1.00;;;;;;4972056;28;20213;-73
2021/11/14 02:04:38;;;;;;;4.35;1.83;;;11.70;1.00;;;;;;4972437;28;20224;-73
2021/11/14 02:07:05;;;;;;;3.40;1.67;;;11.60;1.00;;;;;;4972362;28;20276;-73
2021/11/14 02:09:33;;;;;;;4.82;1.25;;;11.60;1.00;;;;;;4972251;28;20300;-72
2021/11/14 02:12:01;;;;;;;4.80;1.60;;;11.60;1.00;;;;;;4972567;28;20216;-73
2021/11/14 02:14:29;;;;;;;4.95;1.60;;;11.70;1.00;;;;;;4971828;28;20568;-73
2021/11/14 02:16:56;;;;;;;4.53;1.40;;;11.70;1.00;;;;;;4972225;28;20541;-73
2021/11/14 02:19:24;;;;;;;3.67;1.95;;;11.70;1.00;;;;;;4971769;28;20237;-73
2021/11/14 02:21:53;;;;;;;4.53;1.30;;;11.60;1.00;;;;;;4972121;28;20296;-73
2021/11/14 02:24:20;;;;;;;2.65;1.75;;;11.70;1.00;;;;;;4971672;28;20743;-74
2021/11/14 02:26:48;;;;;;;1.80;1.48;;;11.70;1.00;;;;;;4971944;28;20677;-74
2021/11/14 02:29:16;;;;;;;4.43;1.77;;;11.70;1.00;;;;;;4971729;28;20260;-74
2021/11/14 02:31:44;;;;;;;4.18;1.77;;;11.70;1.00;;;;;;4972001;28;20209;-75
2021/11/14 02:34:11;;;;;;;4.22;1.30;;;11.70;1.00;;;;;;4971184;28;20248;-74
2021/11/14 02:36:39;;;;;;;5.03;1.52;;;11.60;1.00;;;;;;4972008;28;20672;-74
2021/11/14 02:39:08;;;;;;;4.97;1.42;;;11.60;1.00;;;;;;4971588;28;20783;-74
2021/11/14 02:41:35;;;;;;;3.33;1.70;;;11.70;1.00;;;;;;4971764;28;20215;-74
2021/11/14 02:44:02;;;;;;;10.00;2.63;;;11.70;1.00;;;;;;4971501;28;20213;-74
2021/11/14 02:46:30;;;;;;;2.30;1.25;;;11.80;1.00;;;;;;4971477;28;20201;-73
2021/11/14 02:48:56;;;;;;;3.00;1.88;;;11.80;1.00;;;;;;4971768;28;20221;-73
2021/11/14 02:51:27;;;;;;;2.08;1.25;;;11.80;1.00;;;;;;4971232;28;20233;-72
2021/11/14 02:53:55;;;;;;;4.30;1.20;;;11.80;1.00;;;;;;4971954;28;20210;-73
2021/11/14 02:56:23;;;;;;;3.30;1.27;;;11.80;1.00;;;;;;4958329;28;20631;-72
2021/11/14 02:58:51;;;;;;;7.18;1.30;;;11.70;1.00;;;;;;4971712;28;20292;-73
2021/11/14 03:01:22;;;;;;;2.90;0.82;;;11.80;1.00;;;;;;4971274;28;20634;-73
2021/11/14 03:03:51;;;;;;;2.10;2.00;;;11.80;1.00;;;;;;4971609;28;20210;-74
2021/11/14 03:06:18;;;;;;;2.70;0.73;;;11.70;1.00;;;;;;4971074;28;20201;-73
2021/11/14 03:08:45;;;;;;;4.63;0.90;;;11.70;1.00;;;;;;4971896;28;20217;-73
2021/11/14 03:11:12;;;;;;;4.00;0.60;;;11.70;1.00;;;;;;4971117;28;20213;-73
2021/11/14 03:13:40;;;;;;;2.75;0.50;;;11.70;1.00;;;;;;4971602;28;20287;-72
2021/11/14 03:16:09;;;;;;;0.80;0.50;;;11.70;1.00;;;;;;4971236;28;20245;-73
2021/11/14 03:18:36;;;;;;;1.17;0.68;;;11.70;1.00;;;;;;4971627;28;20260;-72
2021/11/14 03:21:04;;;;;;;1.27;0.60;;;11.70;1.00;;;;;;4971834;28;20264;-73
2021/11/14 03:23:31;;;;;;;2.65;0.60;;;11.70;1.00;;;;;;4971052;28;20681;-76
2021/11/14 03:25:59;;;;;;;2.58;0.68;;;11.70;1.00;;;;;;4971538;28;20213;-72
2021/11/14 03:28:27;;;;;;;2.83;0.70;;;11.70;1.00;;;;;;4971035;28;20247;-74
2021/11/14 03:30:58;;;;;;;1.45;0.75;;;11.70;1.00;;;;;;4971918;28;20272;-72
2021/11/14 03:33:26;;;;;;;2.95;0.82;;;11.70;1.00;;;;;;4970948;28;20677;-73
2021/11/14 03:35:56;;;;;;;2.35;0.88;;;11.70;1.00;;;;;;4970918;28;20213;-75
2021/11/14 03:38:29;;;;;;;1.00;0.45;;;11.60;1.00;;;;;;4971037;28;20272;-73
2021/11/14 03:40:56;;;;;;;1.63;0.85;;;11.60;1.00;;;;;;4971297;28;20284;-73
2021/11/14 03:43:24;;;;;;;1.05;0.43;;;11.60;1.00;;;;;;4969027;28;20249;-74
2021/11/14 03:45:51;;;;;;;0.98;0.47;;;11.60;1.00;;;;;;4971553;28;20214;-73
2021/11/14 03:48:20;;;;;;;2.25;0.40;;;11.60;1.00;;;;;;4970172;28;20225;-73
2021/11/14 03:50:47;;;;;;;1.63;0.40;;;11.60;1.00;;;;;;4971135;28;20214;-75
2021/11/14 03:53:15;;;;;;;1.08;0.40;;;11.60;1.00;;;;;;4970616;28;20213;-73
2021/11/14 03:55:43;;;;;;;6.40;1.35;;;11.50;1.00;;;;;;4974702;28;20569;-73
2021/11/14 03:58:10;;;;;;;1.17;0.35;;;11.50;1.00;;;;;;4974661;28;20202;-73
2021/11/14 04:00:40;;;;;;;2.17;0.35;;;11.60;1.00;;;;;;4974702;28;20237;-75
2021/11/14 04:03:07;;;;;;;0.52;0.40;;;11.50;1.00;;;;;;4974349;28;20264;-73
2021/11/14 04:05:36;;;;;;;0.52;0.52;;;11.50;1.00;;;;;;4975014;28;20214;-72
2021/11/14 04:08:09;;;;;;;0.82;0.50;;;11.50;1.00;;;;;;4974613;28;20681;-74
2021/11/14 04:10:37;;;;;;;2.05;0.38;;;11.50;1.00;;;;;;4974838;28;20201;-72
2021/11/14 04:13:05;;;;;;;10.23;3.30;;;11.50;1.00;;;;;;4974784;28;20237;-72
2021/11/14 04:15:31;;;;;;;0.90;0.57;;;11.50;1.00;;;;;;4974271;28;20627;-72
2021/11/14 04:17:59;;;;;;;1.60;0.73;;;11.50;1.00;;;;;;4974090;28;20213;-72
2021/11/14 04:20:27;;;;;;;0.43;0.40;;;11.50;1.00;;;;;;4973986;28;20632;-72
2021/11/14 04:22:56;;;;;;;1.75;0.40;;;11.50;1.00;;;;;;4974275;28;20209;-74
2021/11/14 04:25:28;;;;;;;1.23;0.40;;;11.50;1.00;;;;;;4973789;28;20650;-73
2021/11/14 04:27:55;;;;;;;1.13;0.57;;;11.50;1.00;;;;;;4974051;28;20670;-72
2021/11/14 04:30:22;;;;;;;1.30;0.55;;;11.50;1.00;;;;;;4973823;28;20285;-75
2021/11/14 04:32:50;;;;;;;2.63;0.68;;;11.50;1.00;;;;;;4973974;28;20284;-73
2021/11/14 04:35:17;;;;;;;0.77;0.30;;;11.50;1.00;;;;;;4973389;28;20218;-73
2021/11/14 04:37:48;;;;;;;4.78;0.73;;;11.50;1.00;;;;;;4974037;28;20556;-73
2021/11/14 04:40:18;;;;;;;4.07;1.40;;;11.50;1.00;;;;;;4973731;28;20229;-73
2021/11/14 04:42:46;;;;;;;2.50;0.80;;;11.50;1.00;;;;;;4974220;28;20272;-72
2021/11/14 04:45:13;;;;;;;0.75;0.60;;;11.40;1.00;;;;;;4973404;28;20213;-72
2021/11/14 04:47:40;;;;;;;2.40;0.70;;;11.50;1.00;;;;;;4973554;28;20649;-74
2021/11/14 04:50:11;;;;;;;3.55;1.13;;;11.50;1.00;;;;;;4974033;28;20210;-74
2021/11/14 04:52:38;;;;;;;1.80;0.85;;;11.40;1.00;;;;;;4973601;28;20264;-74
2021/11/14 04:55:07;;;;;;;1.77;0.80;;;11.50;1.00;;;;;;4974085;28;20213;-73
2021/11/14 04:57:35;;;;;;;2.08;0.85;;;11.50;1.00;;;;;;4973973;28;20206;-73
2021/11/14 05:00:03;;;;;;;4.43;1.15;;;11.50;1.00;;;;;;4973679;28;20237;-75
2021/11/14 05:02:30;;;;;;;4.40;1.10;;;11.50;1.00;;;;;;4972752;28;20269;-73
2021/11/14 05:04:57;;;;;;;3.83;1.48;;;11.50;1.00;;;;;;4972922;28;20213;-74
2021/11/14 05:07:24;;;;;;;5.43;1.52;;;11.50;1.00;;;;;;4972667;28;20636;-74
2021/11/14 05:09:51;;;;;;;1.57;1.40;;;11.50;1.00;;;;;;4973663;28;20731;-75
2021/11/14 05:12:18;;;;;;;4.68;1.52;;;11.50;1.00;;;;;;4972929;28;20205;-72
2021/11/14 05:14:46;;;;;;;2.55;1.80;;;11.50;1.00;;;;;;4973067;28;20213;-72
2021/11/14 05:17:13;;;;;;;2.80;1.50;;;11.50;1.00;;;;;;4972902;28;20205;-72
2021/11/14 05:19:41;;;;;;;2.65;2.13;;;11.50;1.00;;;;;;4973149;28;20601;-72
2021/11/14 05:22:08;;;;;;;3.03;2.05;;;11.50;1.00;;;;;;4973197;28;20209;-72
2021/11/14 05:24:35;;;;;;;3.58;1.27;;;11.50;1.00;;;;;;4973376;28;20217;-73
2021/11/14 05:27:02;;;;;;;2.57;1.57;;;11.50;1.00;;;;;;4973504;28;20271;-73
2021/11/14 05:29:28;;;;;;;5.03;2.05;;;11.50;1.00;;;;;;4972861;28;20221;-74
2021/11/14 05:31:57;;;;;;;14.20;2.75;;;11.50;1.00;;;;;;4959786;28;20825;-72
2021/11/14 05:34:24;;;;;;;2.72;1.75;;;11.40;1.00;;;;;;4972924;28;20256;-73
2021/11/14 05:36:51;;;;;;;3.28;2.22;;;11.40;1.00;;;;;;4972940;28;20223;-73
2021/11/14 05:39:18;;;;;;;5.43;2.03;;;11.40;1.00;;;;;;4972380;28;20685;-73
2021/11/14 05:41:45;;;;;;;3.20;2.05;;;11.50;1.00;;;;;;4972454;28;20587;-73
2021/11/14 05:44:12;;;;;;;5.75;2.10;;;11.50;1.00;;;;;;4972501;28;20209;-75
2021/11/14 05:46:39;;;;;;;4.03;2.15;;;11.50;1.00;;;;;;4972639;28;20304;-74
2021/11/14 05:49:09;;;;;;;2.50;2.13;;;11.50;1.00;;;;;;4972799;28;20264;-72
2021/11/14 05:51:36;;;;;;;4.25;2.33;;;11.40;1.00;;;;;;4972980;28;20209;-73
2021/11/14 05:54:04;;;;;;;4.80;2.60;;;11.40;1.00;;;;;;4972541;28;20301;-72
2021/11/14 05:56:31;;;;;;;2.30;2.10;;;11.30;1.00;;;;;;4972107;28;20268;-73
2021/11/14 05:59:05;;;;;;;5.03;1.92;;;11.40;1.00;;;;;;4972214;28;20209;-74
2021/11/14 06:01:37;;;;;;;3.17;1.60;;;11.40;1.00;;;;;;4971961;28;20620;-73
2021/11/14 06:04:08;;;;;;;2.90;1.95;;;11.30;1.00;;;;;;4972558;28;20216;-74
2021/11/14 06:06:36;;;;;;;2.30;1.77;;;11.30;1.00;;;;;;4972612;28;20213;-73
2021/11/14 06:09:03;;;;;;;4.53;2.13;;;11.30;1.00;;;;;;4972837;28;20209;-73
2021/11/14 06:11:30;;;;;;;5.10;1.77;;;11.30;1.00;;;;;;4971963;28;20213;-78
2021/11/14 06:13:58;;;;;;;4.90;2.10;;;11.30;1.00;;;;;;4972339;28;20280;-75
2021/11/14 06:16:25;;;;;;;4.03;2.22;;;11.30;1.00;;;;;;4971487;28;20241;-73
2021/11/14 06:18:52;;;;;;;3.80;2.22;;;11.30;1.00;;;;;;4972045;28;20269;-71
2021/11/14 06:21:19;;;;;;;4.90;2.00;;;11.40;1.00;;;;;;4971255;28;20265;-70
2021/11/14 06:23:47;;;;;;;4.80;1.90;;;11.40;1.00;;;;;;4972445;28;20288;-73
2021/11/14 06:26:14;;;;;;;2.60;2.40;;;11.30;1.00;;;;;;4962100;28;20210;-72
2021/11/14 06:28:42;;;;;;;2.77;1.70;;;11.30;1.00;;;;;;4971863;28;20209;-72
2021/11/14 06:31:10;;;;;;;2.38;1.77;;;11.30;1.00;;;;;;4971314;28;20213;-73
2021/11/14 06:33:37;;;;;;;3.13;2.67;;;11.30;1.00;;;;;;4959408;28;20205;-73
2021/11/14 06:36:04;;;;;;;6.00;1.90;;;11.30;1.00;;;;;;4972111;28;20673;-72
2021/11/14 06:38:32;;;;;;;2.88;2.05;;;11.30;1.00;;;;;;4969861;28;20216;-72
2021/11/14 06:41:00;;;;;;;3.90;1.90;;;11.20;1.00;;;;;;4971599;28;20659;-72
2021/11/14 06:43:28;;;;;;;2.40;1.85;;;11.20;1.00;;;;;;4971042;28;20209;-72
2021/11/14 06:45:56;;;;;;;4.13;2.67;;;11.30;1.00;;;;;;4971588;28;20220;-70
2021/11/14 06:48:23;;;;;;;2.63;2.25;;;11.30;1.00;;;;;;4970729;28;20272;-69
2021/11/14 06:50:50;;;;;;;4.97;2.50;;;11.20;1.00;;;;;;4971777;28;20278;-69
2021/11/14 06:53:18;;;;;;;2.45;1.88;;;11.30;1.00;;;;;;4971558;28;20634;-69
2021/11/14 06:55:45;;;;;;;4.40;1.55;;;11.20;1.00;;;;;;4971623;28;20252;-69
2021/11/14 06:58:13;;;;;;;3.63;1.90;;;11.20;1.00;;;;;;4971259;28;20218;-69
2021/11/14 07:00:42;;;;;;;4.25;1.83;;;11.20;1.00;;;;;;4970911;28;20670;-73
2021/11/14 07:03:10;;;;;;;2.80;1.63;;;11.30;1.00;;;;;;4971567;28;20212;-71
2021/11/14 07:05:39;;;;;;;11.27;2.37;;;11.20;1.00;;;;;;4971693;28;20690;-69
2021/11/14 07:08:07;;;;;;;3.08;1.83;;;11.30;1.00;;;;;;4971806;28;20202;-69
2021/11/14 07:10:34;;;;;;;3.55;2.13;;;11.20;1.00;;;;;;4971757;28;20205;-70
2021/11/14 07:13:01;;;;;;;3.13;1.92;;;11.20;1.00;;;;;;4971056;28;20576;-70
2021/11/14 07:15:30;;;;;;;1.92;1.73;;;11.30;1.00;;;;;;4971109;28;20272;-70
2021/11/14 07:17:57;;;;;;;3.38;1.70;;;11.30;1.00;;;;;;4971199;28;20272;-71
2021/11/14 07:20:26;;;;;;;4.68;2.10;;;11.30;99.90;;;;;;4970854;28;20225;-74
2021/11/14 07:22:55;;;;;;;2.95;1.77;;;11.30;99.90;;;;;;4967373;28;20209;-74
2021/11/14 07:25:22;;;;;;;1.73;1.60;;;11.30;99.90;;;;;;4971424;28;20260;-72
2021/11/14 07:27:51;;;;;;;4.32;2.13;;;11.30;99.90;;;;;;4970454;28;20205;-73
2021/11/14 07:30:20;;;;;;;2.70;1.67;;;11.40;99.90;;;;;;4973482;28;20680;-71
2021/11/14 07:32:49;;;;;;;9.05;2.42;;;11.40;99.90;;;;;;4974286;28;20823;-72
2021/11/14 07:35:19;;;;;;;3.25;2.13;;;11.30;99.90;;;;;;4974610;28;20209;-72
2021/11/14 07:37:46;;;;;;;4.65;2.30;;;11.40;99.90;;;;;;4975112;28;20213;-70
2021/11/14 07:40:15;;;;;;;4.97;2.57;;;11.40;99.90;;;;;;4974360;28;20283;-71
2021/11/14 07:42:44;;;;;;;5.03;3.13;;;11.40;99.90;;;;;;4975051;28;20262;-71
2021/11/14 07:45:13;;;;;;;3.33;1.75;;;11.40;99.90;;;;;;4974606;28;20260;-71
2021/11/14 07:47:40;;;;;;;2.90;2.08;;;11.40;99.90;;;;;;4974701;28;20221;-72
2021/11/14 07:50:10;;;;;;;2.67;1.85;;;11.40;99.90;;;;;;4974805;28;20300;-71
2021/11/14 07:52:37;;;;;;;2.65;2.05;;;11.50;99.90;;;;;;4974751;28;20260;-70
2021/11/14 07:55:06;;;;;;;4.43;2.45;;;11.40;99.90;;;;;;4974141;28;20264;-71
2021/11/14 07:57:33;;;;;;;8.43;1.95;;;11.50;99.90;;;;;;4974988;28;20248;-71
2021/11/14 08:00:01;;;;;;;2.92;1.98;;;11.50;99.90;;;;;;4974934;28;20251;-71
2021/11/14 08:02:28;;;;;;;9.57;2.80;;;11.50;99.90;;;;;;4974292;28;20288;-71
2021/11/14 08:04:55;;;;;;;6.25;2.90;;;11.50;99.90;;;;;;4974860;28;20260;-71
2021/11/14 08:07:23;;;;;;;3.10;1.77;;;11.50;99.90;;;;;;4974282;28;20213;-71
2021/11/14 08:09:50;;;;;;;2.72;2.15;;;11.60;99.90;;;;;;4961054;28;20273;-71
2021/11/14 08:12:17;;;;;;;3.38;2.15;;;11.60;99.90;;;;;;4974372;28;20217;-71
2021/11/14 08:14:44;;;;;;;3.50;1.83;;;11.60;99.90;;;;;;4974424;28;20265;-72
2021/11/14 08:17:11;;;;;;;5.47;2.42;;;11.60;99.90;;;;;;4974139;28;20214;-73
2021/11/14 08:19:38;;;;;;;3.60;2.00;;;11.60;99.90;;;;;;4972509;28;20264;-72
2021/11/14 08:22:05;;;;;;;3.38;2.80;;;11.60;99.90;;;;;;4974040;28;20229;-73
2021/11/14 08:24:34;;;;;;;9.52;2.53;;;11.60;99.90;;;;;;4973845;28;20266;-71
2021/11/14 08:27:01;;;;;;;5.80;2.63;;;11.60;99.90;;;;;;4974544;28;20260;-71
2021/11/14 08:29:28;;;;;;;7.05;3.88;;;11.70;99.90;;;;;;4973681;28;21013;-72
2021/11/14 08:31:55;;;;;;;5.97;3.90;;;11.70;99.90;;;;;;4974046;28;20217;-71
2021/11/14 08:34:22;;;;;;;6.85;2.92;;;11.70;99.90;;;;;;4973688;28;20217;-72
2021/11/14 08:36:49;;;;;;;4.82;3.58;;;11.60;99.90;;;;;;4971741;28;20748;-73
2021/11/14 08:39:16;;;;;;;4.35;2.83;;;11.70;99.90;;;;;;4971804;28;20740;-73
2021/11/14 08:41:44;;;;;;;4.47;3.30;;;11.70;99.90;;;;;;4973275;28;20779;-72
2021/11/14 08:44:11;;;;;;;7.20;3.47;;;11.70;99.90;;;;;;4972249;28;20213;-72
2021/11/14 08:46:39;;;;;;;3.72;2.63;;;11.70;99.90;;;;;;4973313;28;20265;-73
2021/11/14 08:49:06;;;;;;;4.75;2.85;;;11.70;99.90;;;;;;4973439;28;20216;-72
2021/11/14 08:51:33;;;;;;;5.18;3.08;;;11.80;99.90;;;;;;4974037;28;20237;-72
2021/11/14 08:54:01;;;;;;;6.65;2.53;;;11.80;99.90;;;;;;4973292;28;20681;-72
2021/11/14 08:56:29;;;;;;;3.15;2.72;;;11.90;99.90;;;;;;4973161;28;20628;-72
2021/11/14 08:58:58;;;;;;;6.55;2.88;;;12.00;99.90;;;;;;4973615;28;20232;-74
2021/11/14 09:01:25;;;;;;;4.28;2.58;;;11.90;99.90;;;;;;4972606;28;20225;-73
2021/11/14 09:03:52;;;;;;;4.95;2.58;;;12.00;99.90;;;;;;4968678;28;20622;-74
2021/11/14 09:06:19;;;;;;;4.80;2.88;;;12.20;99.90;;;;;;4972784;28;20281;-74
2021/11/14 09:08:46;;;;;;;7.72;3.63;;;12.40;99.90;;;;;;4972804;28;20214;-74
2021/11/14 09:11:13;;;;;;;4.75;3.28;;;12.30;99.90;;;;;;4972473;28;20210;-77
2021/11/14 09:13:41;;;;;;;4.97;2.75;;;12.20;99.90;;;;;;4973547;28;20246;-77
2021/11/14 09:16:10;;;;;;;5.82;3.08;;;12.30;99.90;;;;;;4971577;28;20755;-75
2021/11/14 09:18:37;;;;;;;4.55;2.65;;;12.40;99.90;;;;;;4970672;28;20205;-74
2021/11/14 09:21:04;;;;;;;6.85;3.40;;;12.60;99.90;;;;;;4972669;28;20654;-74
2021/11/14 09:23:31;;;;;;;4.15;3.15;;;12.70;99.90;;;;;;4972316;28;20268;-77
2021/11/14 09:25:59;;;;;;;4.20;2.80;;;12.90;99.90;;;;;;4972748;28;20218;-78
2021/11/14 09:28:26;;;;;;;3.42;2.75;;;13.00;99.90;;;;;;4972730;28;20689;-78
2021/11/14 09:30:54;;;;;;;4.05;3.50;;;13.10;99.90;;;;;;4971643;28;20596;-74
2021/11/14 09:33:24;;;;;;;4.43;2.95;;;13.10;99.90;;;;;;4971750;28;20677;-75
2021/11/14 09:35:51;;;;;;;3.03;2.63;;;13.20;99.90;;;;;;4972792;28;20209;-77
2021/11/14 09:38:18;;;;;;;2.88;2.33;;;13.00;99.90;;;;;;4971488;28;20228;-74
2021/11/14 09:40:45;;;;;;;2.67;2.22;;;13.10;99.90;;;;;;4971801;28;20767;-77
2021/11/14 09:43:15;;;;;;;3.35;2.53;;;13.00;99.90;;;;;;4971802;28;20262;-76
2021/11/14 09:45:42;;;;;;;5.55;2.78;;;12.90;99.90;;;;;;4966135;28;20241;-78
2021/11/14 09:48:09;;;;;;;3.97;3.42;;;12.80;99.90;;;;;;4964366;28;20268;-76
2021/11/14 09:50:38;;;;;;;3.35;3.03;;;12.80;99.90;;;;;;4971914;28;20205;-75
2021/11/14 09:53:05;;;;;;;3.58;2.22;;;12.90;99.90;;;;;;4970032;28;20635;-79
2021/11/14 09:55:35;;;;;;;6.57;2.78;;;13.10;99.90;;;;;;4970845;28;20426;-75
2021/11/14 09:58:03;;;;;;;2.75;2.25;;;13.20;99.90;;;;;;4972767;28;20213;-80
2021/11/14 10:00:33;;;;;;;2.85;2.45;;;13.10;99.90;;;;;;4971929;28;20669;-80
2021/11/14 10:03:00;;;;;;;3.90;2.45;;;12.80;99.90;;;;;;4959840;28;20739;-79
2021/11/14 10:05:27;;;;;;;5.05;2.85;;;12.60;99.90;;;;;;4971789;28;20751;-75
2021/11/14 10:07:57;;;;;;;4.07;2.88;;;12.50;99.90;;;;;;4972124;28;20261;-77
2021/11/14 10:10:27;;;;;;;2.85;2.53;;;12.50;99.90;;;;;;4971984;28;20214;-80
2021/11/14 10:12:54;;;;;;;3.80;2.70;;;12.50;99.90;;;;;;4971382;28;20362;-79
2021/11/14 10:15:24;;;;;;;4.38;2.85;;;12.30;99.90;;;;;;4971762;28;20670;-76
2021/11/14 10:17:55;;;;;;;4.75;3.22;;;12.30;99.90;;;;;;4972058;28;20269;-81
2021/11/14 10:20:23;;;;;;;3.30;2.92;;;12.40;99.90;;;;;;4971465;28;20693;-77
2021/11/14 10:22:52;;;;;;;3.50;3.20;;;12.50;99.90;;;;;;4971881;28;20241;-78
2021/11/14 10:25:21;;;;;;;2.65;2.40;;;12.50;99.90;;;;;;4971977;28;20263;-78
2021/11/14 10:27:50;;;;;;;4.00;2.33;;;12.30;99.90;;;;;;4971741;28;20209;-77
2021/11/14 10:30:18;;;;;;;5.22;3.08;;;12.20;99.90;;;;;;4971550;28;20260;-76
2021/11/14 10:32:45;;;;;;;2.97;1.83;;;12.00;99.90;;;;;;4971836;28;20689;-76
2021/11/14 10:35:12;;;;;;;3.95;1.98;;;11.90;99.90;;;;;;4971155;28;20206;-74
2021/11/14 10:37:44;;;;;;;3.10;1.80;;;11.90;99.90;;;;;;4971713;28;20751;-73
2021/11/14 10:40:15;;;;;;;4.35;1.55;;;11.80;99.90;;;;;;4971349;28;20210;-74
2021/11/14 10:42:47;;;;;;;3.72;1.45;;;11.80;99.90;;;;;;4971659;28;20222;-75
2021/11/14 10:45:16;;;;;;;2.65;1.58;;;11.60;99.90;;;;;;4971308;28;20257;-72
2021/11/14 10:47:43;;;;;;;2.05;1.70;;;11.50;99.90;;;;;;4971734;28;20217;-71
2021/11/14 10:50:13;;;;;;;3.05;1.92;;;11.60;99.90;;;;;;4970791;28;20690;-71
2021/11/14 10:52:52;;;;;;;4.00;1.73;;;11.70;99.90;;;;;;4971461;28;20603;-72
2021/11/14 10:55:19;;;;;;;4.65;1.98;;;11.70;99.90;;;;;;4971360;28;20245;-71
2021/11/14 10:57:49;;;;;;;6.78;2.90;;;11.50;99.90;;;;;;4971548;28;20209;-71
2021/11/14 11:00:17;;;;;;;5.07;1.80;;;11.50;99.90;;;;;;4970480;28;20201;-72
2021/11/14 11:02:47;;;;;;;1.90;1.80;;;11.50;99.90;;;;;;4971424;28;20241;-71
2021/11/14 11:05:17;;;;;;;3.58;1.80;;;11.50;99.90;;;;;;4974138;28;20652;-71
2021/11/14 11:07:53;;;;;;;3.15;1.50;;;11.40;99.90;;;;;;4975594;28;20217;-72
2021/11/14 11:10:20;;;;;;;5.65;2.25;;;11.40;99.90;;;;;;4975275;28;20649;-72
2021/11/14 11:12:48;;;;;;;3.10;1.85;;;11.50;99.90;;;;;;4975494;28;20213;-72
2021/11/14 11:15:15;;;;;;;3.95;1.80;;;11.60;99.90;;;;;;4975000;28;20264;-71
2021/11/14 11:17:45;;;;;;;2.88;1.20;;;11.60;99.90;;;;;;4975367;28;20261;-72
2021/11/14 11:20:14;;;;;;;2.75;1.63;;;11.60;99.90;;;;;;4974961;28;20216;-71
2021/11/14 11:22:49;;;;;;;4.70;1.88;;;11.60;99.90;;;;;;4975543;28;20237;-72
2021/11/14 11:25:28;;;;;;;3.85;2.25;;;11.60;99.90;;;;;;4962684;28;20209;-72
2021/11/14 11:27:57;;;;;;;3.08;1.70;;;11.60;99.90;;;;;;4974899;28;20719;-71
2021/11/14 11:30:30;;;;;;;2.70;1.98;;;11.60;99.90;;;;;;4974765;28;20209;-72
2021/11/14 11:32:57;;;;;;;3.83;2.50;;;11.80;99.90;;;;;;4975272;28;20272;-72
2021/11/14 11:35:24;;;;;;;4.65;2.50;;;12.00;99.90;;;;;;4974751;28;20205;-71
2021/11/14 11:37:51;;;;;;;4.03;2.70;;;12.20;99.90;;;;;;4974876;28;20210;-73
2021/11/14 11:40:18;;;;;;;2.55;2.25;;;12.40;99.90;;;;;;4973913;28;20206;-72
2021/11/14 11:42:45;;;;;;;3.88;1.83;;;12.60;99.90;;;;;;4970146;28;20241;-72
2021/11/14 11:45:16;;;;;;;2.85;2.50;;;12.70;99.90;;;;;;4974382;28;20213;-72
2021/11/14 11:47:45;;;;;;;4.68;2.75;;;12.80;99.90;;;;;;4974779;28;20255;-73
2021/11/14 11:50:13;;;;;;;4.57;2.05;;;13.00;99.90;;;;;;4973067;28;20567;-73
2021/11/14 11:52:42;;;;;;;3.15;2.20;;;13.30;99.90;;;;;;4974808;28;20291;-72
2021/11/14 11:55:21;;;;;;;4.75;2.17;;;13.90;99.90;;;;;;4974313;28;20285;-73
2021/11/14 11:57:49;;;;;;;2.40;2.00;;;14.20;99.90;;;;;;4973661;28;20216;-73
2021/11/14 12:00:17;;;;;;;4.00;2.28;;;14.00;99.90;;;;;;4973705;28;20206;-74
2021/11/14 12:02:44;;;;;;;2.88;1.48;;;13.80;99.90;;;;;;4973427;28;20304;-74
2021/11/14 12:05:16;;;;;;;3.03;1.60;;;13.70;99.90;;;;;;4973859;28;20206;-73
2021/11/14 12:07:48;;;;;;;2.10;1.75;;;13.40;99.90;;;;;;4974559;28;20216;-73
2021/11/14 12:10:18;;;;;;;4.90;1.83;;;13.40;99.90;;;;;;4973902;28;20673;-73
2021/11/14 12:13:03;;;;;;;2.72;2.00;;;13.40;99.90;;;;;;4974634;28;20596;-73
2021/11/14 12:15:34;;;;;;;4.45;2.45;;;13.30;99.90;;;;;;4973543;28;20214;-74
2021/11/14 12:18:04;;;;;;;4.13;1.60;;;13.20;99.90;;;;;;4974434;28;20289;-74
2021/11/14 12:20:34;;;;;;;3.08;1.67;;;13.40;99.90;;;;;;4974648;28;20213;-73
2021/11/14 12:23:03;;;;;;;1.50;1.35;;;13.30;99.90;;;;;;4971003;28;20241;-73
2021/11/14 12:25:36;;;;;;;4.25;1.80;;;13.50;99.90;;;;;;4973813;28;20293;-74
2021/11/14 12:28:07;;;;;;;3.15;1.70;;;13.60;99.90;;;;;;4973901;28;20206;-73
2021/11/14 12:30:38;;;;;;;3.53;1.83;;;13.70;99.90;;;;;;4974539;28;20564;-75
2021/11/14 12:33:07;;;;;;;1.77;1.50;;;13.60;99.90;;;;;;4974179;28;20689;-76
2021/11/14 12:35:44;;;;;;;2.65;1.95;;;13.50;99.90;;;;;;4974354;28;20296;-76
2021/11/14 12:38:14;;;;;;;4.32;2.22;;;13.60;99.90;;;;;;4973374;28;20649;-76
2021/11/14 12:40:44;;;;;;;2.92;1.92;;;13.50;99.90;;;;;;4974141;28;20276;-75
2021/11/14 12:43:15;;;;;;;2.58;1.65;;;13.40;99.90;;;;;;4973414;28;20221;-75
2021/11/14 12:45:52;;;;;;;3.55;1.83;;;13.40;99.90;;;;;;4973600;28;20631;-74
2021/11/14 12:48:23;;;;;;;4.78;1.83;;;13.40;99.90;;;;;;4973160;28;20636;-73
2021/11/14 12:51:03;;;;;;;6.13;1.65;;;13.30;99.90;;;;;;4973625;28;20213;-75
2021/11/14 12:53:30;;;;;;;3.63;1.95;;;13.30;99.90;;;;;;4973769;28;20652;-74
2021/11/14 12:55:57;;;;;;;1.83;1.23;;;13.40;99.90;;;;;;4969330;28;20264;-74
2021/11/14 12:58:33;;;;;;;1.80;1.45;;;13.30;99.90;;;;;;4973304;28;20213;-75